sensor_id;sensor_type;location;lat;lon;timestamp;temperature;humidity
6118;DHT22;3089;48.202;11.510;2024-01-06T00:01:32;4.90;99.90
6118;DHT22;3089;48.202;11.510;2024-01-06T00:04:01;4.90;99.90
6118;DHT22;3089;48.202;11.510;2024-01-06T00:06:29;4.90;99.90
6118;DHT22;3089;48.202;11.510;2024-01-06T00:08:57;4.90;99.90
6118;DHT22;3089;48.202;11.510;2024-01-06T00:11:26;4.90;99.90
6118;DHT22;3089;48.202;11.510;2024-01-06T00:13:54;4.90;99.90
6118;DHT22;3089;48.202;11.510;2024-01-06T00:16:22;4.90;99.90
6118;DHT22;3089;48.202;11.510;2024-01-06T00:18:55;4.90;99.90
6118;DHT22;3089;48.202;11.510;2024-01-06T00:21:24;4.90;99.90
6118;DHT22;3089;48.202;11.510;2024-01-06T00:23:53;4.90;99.90
6118;DHT22;3089;48.202;11.510;2024-01-06T00:26:22;4.90;99.90
6118;DHT22;3089;48.202;11.510;2024-01-06T00:28:51;4.90;99.90
6118;DHT22;3089;48.202;11.510;2024-01-06T00:31:19;4.90;99.90
6118;DHT22;3089;48.202;11.510;2024-01-06T00:33:47;4.90;99.90
6118;DHT22;3089;48.202;11.510;2024-01-06T00:36:15;4.90;99.90
6118;DHT22;3089;48.202;11.510;2024-01-06T00:38:45;4.80;99.90
6118;DHT22;3089;48.202;11.510;2024-01-06T00:41:13;4.80;99.90
6118;DHT22;3089;48.202;11.510;2024-01-06T00:43:42;4.90;99.90
6118;DHT22;3089;48.202;11.510;2024-01-06T00:46:10;4.90;99.90
6118;DHT22;3089;48.202;11.510;2024-01-06T00:48:39;4.90;99.90
6118;DHT22;3089;48.202;11.510;2024-01-06T00:51:08;4.90;99.90
6118;DHT22;3089;48.202;11.510;2024-01-06T00:53:36;4.90;99.90
6118;DHT22;3089;48.202;11.510;2024-01-06T00:56:05;4.90;99.90
6118;DHT22;3089;48.202;11.510;2024-01-06T00:58:34;4.80;99.90
6118;DHT22;3089;48.202;11.510;2024-01-06T01:01:02;4.90;99.90
6118;DHT22;3089;48.202;11.510;2024-01-06T01:03:31;4.90;99.90
6118;DHT22;3089;48.202;11.510;2024-01-06T01:05:59;4.90;99.90
6118;DHT22;3089;48.202;11.510;2024-01-06T01:08:27;4.90;99.90
6118;DHT22;3089;48.202;11.510;2024-01-06T01:10:55;4.90;99.90
6118;DHT22;3089;48.202;11.510;2024-01-06T01:13:25;4.90;99.90
6118;DHT22;3089;48.202;11.510;2024-01-06T01:15:53;4.90;99.90
6118;DHT22;3089;48.202;11.510;2024-01-06T01:18:21;4.90;99.90
6118;DHT22;3089;48.202;11.510;2024-01-06T01:20:49;4.90;99.90
6118;DHT22;3089;48.202;11.510;2024-01-06T01:23:17;4.90;99.90
6118;DHT22;3089;48.202;11.510;2024-01-06T01:25:45;4.90;99.90
6118;DHT22;3089;48.202;11.510;2024-01-06T01:28:14;4.90;99.90
6118;DHT22;3089;48.202;11.510;2024-01-06T01:30:43;4.90;99.90
6118;DHT22;3089;48.202;11.510;2024-01-06T01:33:11;4.90;99.90
6118;DHT22;3089;48.202;11.510;2024-01-06T01:35:40;4.80;99.90
6118;DHT22;3089;48.202;11.510;2024-01-06T01:38:08;4.90;99.90
6118;DHT22;3089;48.202;11.510;2024-01-06T01:40:36;4.90;99.90
6118;DHT22;3089;48.202;11.510;2024-01-06T01:43:04;4.90;99.90
6118;DHT22;3089;48.202;11.510;2024-01-06T01:45:33;4.90;99.90
6118;DHT22;3089;48.202;11.510;2024-01-06T01:48:03;4.90;99.90
6118;DHT22;3089;48.202;11.510;2024-01-06T01:50:31;4.90;99.90
6118;DHT22;3089;48.202;11.510;2024-01-06T01:52:59;4.90;99.90
6118;DHT22;3089;48.202;11.510;2024-01-06T01:55:28;4.90;99.90
6118;DHT22;3089;48.202;11.510;2024-01-06T01:57:56;4.90;99.90
6118;DHT22;3089;48.202;11.510;2024-01-06T02:00:24;4.90;99.90
6118;DHT22;3089;48.202;11.510;2024-01-06T02:02:53;4.90;99.90
6118;DHT22;3089;48.202;11.510;2024-01-06T02:05:23;4.90;99.90
6118;DHT22;3089;48.202;11.510;2024-01-06T02:07:51;4.90;99.90
6118;DHT22;3089;48.202;11.510;2024-01-06T02:10:19;4.90;99.90
6118;DHT22;3089;48.202;11.510;2024-01-06T02:12:48;4.90;99.90
6118;DHT22;3089;48.202;11.510;2024-01-06T02:15:19;4.90;99.90
6118;DHT22;3089;48.202;11.510;2024-01-06T02:17:47;4.90;99.90
6118;DHT22;3089;48.202;11.510;2024-01-06T02:20:16;4.90;99.90
6118;DHT22;3089;48.202;11.510;2024-01-06T02:22:48;4.90;99.90
6118;DHT22;3089;48.202;11.510;2024-01-06T02:25:16;4.90;99.90
6118;DHT22;3089;48.202;11.510;2024-01-06T02:27:46;4.90;99.90
6118;DHT22;3089;48.202;11.510;2024-01-06T02:30:14;4.90;99.90
6118;DHT22;3089;48.202;11.510;2024-01-06T02:32:42;4.90;99.90
6118;DHT22;3089;48.202;11.510;2024-01-06T02:35:10;4.90;99.90
6118;DHT22;3089;48.202;11.510;2024-01-06T02:37:38;4.80;99.90
6118;DHT22;3089;48.202;11.510;2024-01-06T02:40:09;4.90;99.90
6118;DHT22;3089;48.202;11.510;2024-01-06T02:42:38;4.80;99.90
6118;DHT22;3089;48.202;11.510;2024-01-06T02:45:07;4.90;99.90
6118;DHT22;3089;48.202;11.510;2024-01-06T02:47:35;4.90;99.90
6118;DHT22;3089;48.202;11.510;2024-01-06T02:50:04;4.90;99.90
6118;DHT22;3089;48.202;11.510;2024-01-06T02:52:33;4.90;99.90
6118;DHT22;3089;48.202;11.510;2024-01-06T02:55:01;4.90;99.90
6118;DHT22;3089;48.202;11.510;2024-01-06T02:57:30;4.90;99.90
6118;DHT22;3089;48.202;11.510;2024-01-06T02:59:58;4.90;99.90
6118;DHT22;3089;48.202;11.510;2024-01-06T03:02:26;4.90;99.90
6118;DHT22;3089;48.202;11.510;2024-01-06T03:04:54;4.90;99.90
6118;DHT22;3089;48.202;11.510;2024-01-06T03:07:23;4.80;99.90
6118;DHT22;3089;48.202;11.510;2024-01-06T03:09:50;4.80;99.90
6118;DHT22;3089;48.202;11.510;2024-01-06T03:12:19;4.90;99.90
6118;DHT22;3089;48.202;11.510;2024-01-06T03:14:48;4.90;99.90
6118;DHT22;3089;48.202;11.510;2024-01-06T03:17:18;4.80;99.90
6118;DHT22;3089;48.202;11.510;2024-01-06T03:19:46;4.90;99.90
6118;DHT22;3089;48.202;11.510;2024-01-06T03:22:14;4.90;99.90
6118;DHT22;3089;48.202;11.510;2024-01-06T03:24:42;4.90;99.90
6118;DHT22;3089;48.202;11.510;2024-01-06T03:27:10;4.80;99.90
6118;DHT22;3089;48.202;11.510;2024-01-06T03:29:39;4.80;99.90
6118;DHT22;3089;48.202;11.510;2024-01-06T03:32:09;4.80;99.90
6118;DHT22;3089;48.202;11.510;2024-01-06T03:34:37;4.80;99.90
6118;DHT22;3089;48.202;11.510;2024-01-06T03:37:05;4.80;99.90
6118;DHT22;3089;48.202;11.510;2024-01-06T03:39:33;4.80;99.90
6118;DHT22;3089;48.202;11.510;2024-01-06T03:42:01;4.80;99.90
6118;DHT22;3089;48.202;11.510;2024-01-06T03:44:30;4.70;99.90
6118;DHT22;3089;48.202;11.510;2024-01-06T03:47:00;4.80;99.90
6118;DHT22;3089;48.202;11.510;2024-01-06T03:49:29;4.80;99.90
6118;DHT22;3089;48.202;11.510;2024-01-06T03:51:57;4.70;99.90
6118;DHT22;3089;48.202;11.510;2024-01-06T03:54:25;4.70;99.90
6118;DHT22;3089;48.202;11.510;2024-01-06T03:56:54;4.70;99.90
6118;DHT22;3089;48.202;11.510;2024-01-06T03:59:21;4.70;99.90
6118;DHT22;3089;48.202;11.510;2024-01-06T04:01:49;4.70;99.90
6118;DHT22;3089;48.202;11.510;2024-01-06T04:04:17;4.70;99.90
6118;DHT22;3089;48.202;11.510;2024-01-06T04:06:47;4.70;99.90
6118;DHT22;3089;48.202;11.510;2024-01-06T04:09:15;4.70;99.90
6118;DHT22;3089;48.202;11.510;2024-01-06T04:11:45;4.70;99.90
6118;DHT22;3089;48.202;11.510;2024-01-06T04:14:13;4.80;99.90
6118;DHT22;3089;48.202;11.510;2024-01-06T04:16:41;4.70;99.90
6118;DHT22;3089;48.202;11.510;2024-01-06T04:19:09;4.70;99.90
6118;DHT22;3089;48.202;11.510;2024-01-06T04:21:38;4.70;99.90
6118;DHT22;3089;48.202;11.510;2024-01-06T04:24:08;4.80;99.90
6118;DHT22;3089;48.202;11.510;2024-01-06T04:26:36;4.80;99.90
6118;DHT22;3089;48.202;11.510;2024-01-06T04:29:04;4.80;99.90
6118;DHT22;3089;48.202;11.510;2024-01-06T04:31:32;4.80;99.90
6118;DHT22;3089;48.202;11.510;2024-01-06T04:34:00;4.80;99.90
6118;DHT22;3089;48.202;11.510;2024-01-06T04:36:30;4.80;99.90
6118;DHT22;3089;48.202;11.510;2024-01-06T04:38:58;4.80;99.90
6118;DHT22;3089;48.202;11.510;2024-01-06T04:41:27;4.80;99.90
6118;DHT22;3089;48.202;11.510;2024-01-06T04:43:55;4.80;99.90
6118;DHT22;3089;48.202;11.510;2024-01-06T04:46:23;4.80;99.90
6118;DHT22;3089;48.202;11.510;2024-01-06T04:48:51;4.80;99.90
6118;DHT22;3089;48.202;11.510;2024-01-06T04:51:19;4.80;99.90
6118;DHT22;3089;48.202;11.510;2024-01-06T04:53:47;4.80;99.90
6118;DHT22;3089;48.202;11.510;2024-01-06T04:56:15;4.80;99.90
6118;DHT22;3089;48.202;11.510;2024-01-06T04:58:45;4.80;99.90
6118;DHT22;3089;48.202;11.510;2024-01-06T05:01:14;4.70;99.90
6118;DHT22;3089;48.202;11.510;2024-01-06T05:03:44;4.80;99.90
6118;DHT22;3089;48.202;11.510;2024-01-06T05:06:13;4.80;99.90
6118;DHT22;3089;48.202;11.510;2024-01-06T05:08:41;4.80;99.90
6118;DHT22;3089;48.202;11.510;2024-01-06T05:11:12;4.70;99.90
6118;DHT22;3089;48.202;11.510;2024-01-06T05:13:40;4.80;99.90
6118;DHT22;3089;48.202;11.510;2024-01-06T05:16:10;4.70;99.90
6118;DHT22;3089;48.202;11.510;2024-01-06T05:18:38;4.80;99.90
6118;DHT22;3089;48.202;11.510;2024-01-06T05:21:06;4.80;99.90
6118;DHT22;3089;48.202;11.510;2024-01-06T05:23:34;4.80;99.90
6118;DHT22;3089;48.202;11.510;2024-01-06T05:26:02;4.70;99.90
6118;DHT22;3089;48.202;11.510;2024-01-06T05:28:30;4.60;99.90
6118;DHT22;3089;48.202;11.510;2024-01-06T05:30:58;4.60;99.90
6118;DHT22;3089;48.202;11.510;2024-01-06T05:33:28;4.70;99.90
6118;DHT22;3089;48.202;11.510;2024-01-06T05:35:56;4.60;99.90
6118;DHT22;3089;48.202;11.510;2024-01-06T05:38:24;4.70;99.90
6118;DHT22;3089;48.202;11.510;2024-01-06T05:40:52;4.40;99.90
6118;DHT22;3089;48.202;11.510;2024-01-06T05:43:20;4.40;99.90
6118;DHT22;3089;48.202;11.510;2024-01-06T05:45:47;4.40;99.90
6118;DHT22;3089;48.202;11.510;2024-01-06T05:48:15;4.50;99.90
6118;DHT22;3089;48.202;11.510;2024-01-06T05:50:45;4.40;99.90
6118;DHT22;3089;48.202;11.510;2024-01-06T05:53:13;4.50;99.90
6118;DHT22;3089;48.202;11.510;2024-01-06T05:55:45;4.30;99.90
6118;DHT22;3089;48.202;11.510;2024-01-06T05:58:13;4.30;99.90
6118;DHT22;3089;48.202;11.510;2024-01-06T06:00:41;4.40;99.90
6118;DHT22;3089;48.202;11.510;2024-01-06T06:03:09;4.40;99.90
6118;DHT22;3089;48.202;11.510;2024-01-06T06:05:37;4.40;99.90
6118;DHT22;3089;48.202;11.510;2024-01-06T06:08:06;4.20;99.90
6118;DHT22;3089;48.202;11.510;2024-01-06T06:10:34;4.30;99.90
6118;DHT22;3089;48.202;11.510;2024-01-06T06:13:19;4.40;99.90
6118;DHT22;3089;48.202;11.510;2024-01-06T06:15:48;4.00;99.90
6118;DHT22;3089;48.202;11.510;2024-01-06T06:18:16;4.00;99.90
6118;DHT22;3089;48.202;11.510;2024-01-06T06:20:44;4.20;99.90
6118;DHT22;3089;48.202;11.510;2024-01-06T06:23:13;4.20;99.90
6118;DHT22;3089;48.202;11.510;2024-01-06T06:25:41;4.30;99.90
6118;DHT22;3089;48.202;11.510;2024-01-06T06:28:09;4.30;99.90
6118;DHT22;3089;48.202;11.510;2024-01-06T06:30:37;4.40;99.90
6118;DHT22;3089;48.202;11.510;2024-01-06T06:33:06;4.50;99.90
6118;DHT22;3089;48.202;11.510;2024-01-06T06:35:35;4.50;99.90
6118;DHT22;3089;48.202;11.510;2024-01-06T06:38:03;4.60;99.90
6118;DHT22;3089;48.202;11.510;2024-01-06T06:40:33;4.60;99.90
6118;DHT22;3089;48.202;11.510;2024-01-06T06:43:03;4.60;99.90
6118;DHT22;3089;48.202;11.510;2024-01-06T06:45:31;4.60;99.90
6118;DHT22;3089;48.202;11.510;2024-01-06T06:47:59;4.50;99.90
6118;DHT22;3089;48.202;11.510;2024-01-06T06:50:27;4.50;99.90
6118;DHT22;3089;48.202;11.510;2024-01-06T06:52:55;4.60;99.90
6118;DHT22;3089;48.202;11.510;2024-01-06T06:55:23;4.50;99.90
6118;DHT22;3089;48.202;11.510;2024-01-06T06:57:53;4.50;99.90
6118;DHT22;3089;48.202;11.510;2024-01-06T07:00:21;4.50;99.90
6118;DHT22;3089;48.202;11.510;2024-01-06T07:02:49;4.50;99.90
6118;DHT22;3089;48.202;11.510;2024-01-06T07:05:18;4.50;99.90
6118;DHT22;3089;48.202;11.510;2024-01-06T07:07:46;4.60;99.90
6118;DHT22;3089;48.202;11.510;2024-01-06T07:10:14;4.50;99.90
6118;DHT22;3089;48.202;11.510;2024-01-06T07:12:42;4.50;99.90
6118;DHT22;3089;48.202;11.510;2024-01-06T07:15:11;4.50;99.90
6118;DHT22;3089;48.202;11.510;2024-01-06T07:17:39;4.50;99.90
6118;DHT22;3089;48.202;11.510;2024-01-06T07:20:08;4.50;99.90
6118;DHT22;3089;48.202;11.510;2024-01-06T07:22:36;4.50;99.90
6118;DHT22;3089;48.202;11.510;2024-01-06T07:25:05;4.50;99.90
6118;DHT22;3089;48.202;11.510;2024-01-06T07:27:34;4.50;99.90
6118;DHT22;3089;48.202;11.510;2024-01-06T07:30:02;4.50;99.90
6118;DHT22;3089;48.202;11.510;2024-01-06T07:32:32;4.50;99.90
6118;DHT22;3089;48.202;11.510;2024-01-06T07:35:03;4.50;99.90
6118;DHT22;3089;48.202;11.510;2024-01-06T07:37:34;4.50;99.90
6118;DHT22;3089;48.202;11.510;2024-01-06T07:40:03;4.50;99.90
6118;DHT22;3089;48.202;11.510;2024-01-06T07:42:31;4.50;99.90
6118;DHT22;3089;48.202;11.510;2024-01-06T07:44:59;4.50;99.90
6118;DHT22;3089;48.202;11.510;2024-01-06T07:47:27;4.50;99.90
6118;DHT22;3089;48.202;11.510;2024-01-06T07:49:56;4.50;99.90
6118;DHT22;3089;48.202;11.510;2024-01-06T07:52:27;4.50;99.90
6118;DHT22;3089;48.202;11.510;2024-01-06T07:54:55;4.50;99.90
6118;DHT22;3089;48.202;11.510;2024-01-06T07:57:23;4.50;99.90
6118;DHT22;3089;48.202;11.510;2024-01-06T07:59:51;4.50;99.90
6118;DHT22;3089;48.202;11.510;2024-01-06T08:02:19;4.50;99.90
6118;DHT22;3089;48.202;11.510;2024-01-06T08:04:47;4.50;99.90
6118;DHT22;3089;48.202;11.510;2024-01-06T08:07:17;4.50;99.90
6118;DHT22;3089;48.202;11.510;2024-01-06T08:09:45;4.50;99.90
6118;DHT22;3089;48.202;11.510;2024-01-06T08:12:14;4.50;99.90
6118;DHT22;3089;48.202;11.510;2024-01-06T08:14:42;4.50;99.90
6118;DHT22;3089;48.202;11.510;2024-01-06T08:17:10;4.50;99.90
6118;DHT22;3089;48.202;11.510;2024-01-06T08:19:41;4.50;99.90
6118;DHT22;3089;48.202;11.510;2024-01-06T08:22:10;4.50;99.90
6118;DHT22;3089;48.202;11.510;2024-01-06T08:24:39;4.50;99.90
6118;DHT22;3089;48.202;11.510;2024-01-06T08:27:07;4.50;99.90
6118;DHT22;3089;48.202;11.510;2024-01-06T08:29:35;4.50;99.90
6118;DHT22;3089;48.202;11.510;2024-01-06T08:32:04;4.50;99.90
6118;DHT22;3089;48.202;11.510;2024-01-06T08:34:32;4.50;99.90
6118;DHT22;3089;48.202;11.510;2024-01-06T08:37:00;4.50;99.90
6118;DHT22;3089;48.202;11.510;2024-01-06T08:39:30;4.50;99.90
6118;DHT22;3089;48.202;11.510;2024-01-06T08:42:00;4.50;99.90
6118;DHT22;3089;48.202;11.510;2024-01-06T08:44:28;4.60;99.90
6118;DHT22;3089;48.202;11.510;2024-01-06T08:46:56;4.60;99.90
6118;DHT22;3089;48.202;11.510;2024-01-06T08:49:24;4.60;99.90
6118;DHT22;3089;48.202;11.510;2024-01-06T08:51:52;4.60;99.90
6118;DHT22;3089;48.202;11.510;2024-01-06T08:54:20;4.60;99.90
6118;DHT22;3089;48.202;11.510;2024-01-06T08:56:48;4.60;99.90
6118;DHT22;3089;48.202;11.510;2024-01-06T08:59:18;4.60;99.90
6118;DHT22;3089;48.202;11.510;2024-01-06T09:01:46;4.60;99.90
6118;DHT22;3089;48.202;11.510;2024-01-06T09:04:16;4.60;99.90
6118;DHT22;3089;48.202;11.510;2024-01-06T09:06:44;4.60;99.90
6118;DHT22;3089;48.202;11.510;2024-01-06T09:09:13;4.60;99.90
6118;DHT22;3089;48.202;11.510;2024-01-06T09:11:41;4.60;99.90
6118;DHT22;3089;48.202;11.510;2024-01-06T09:14:10;4.60;99.90
6118;DHT22;3089;48.202;11.510;2024-01-06T09:16:40;4.60;99.90
6118;DHT22;3089;48.202;11.510;2024-01-06T09:19:08;4.60;99.90
6118;DHT22;3089;48.202;11.510;2024-01-06T09:21:36;4.60;99.90
6118;DHT22;3089;48.202;11.510;2024-01-06T09:24:04;4.60;99.90
6118;DHT22;3089;48.202;11.510;2024-01-06T09:26:33;4.60;99.90
6118;DHT22;3089;48.202;11.510;2024-01-06T09:29:02;4.60;99.90
6118;DHT22;3089;48.202;11.510;2024-01-06T09:31:31;4.60;99.90
6118;DHT22;3089;48.202;11.510;2024-01-06T09:34:01;4.60;99.90
6118;DHT22;3089;48.202;11.510;2024-01-06T09:36:31;4.70;99.90
6118;DHT22;3089;48.202;11.510;2024-01-06T09:38:59;4.60;99.90
6118;DHT22;3089;48.202;11.510;2024-01-06T09:41:27;4.70;99.90
6118;DHT22;3089;48.202;11.510;2024-01-06T09:43:56;4.70;99.90
6118;DHT22;3089;48.202;11.510;2024-01-06T09:46:26;4.60;99.90
6118;DHT22;3089;48.202;11.510;2024-01-06T09:48:56;4.70;99.90
6118;DHT22;3089;48.202;11.510;2024-01-06T09:51:26;4.70;99.90
6118;DHT22;3089;48.202;11.510;2024-01-06T09:53:58;4.70;99.90
6118;DHT22;3089;48.202;11.510;2024-01-06T09:56:27;4.70;99.90
6118;DHT22;3089;48.202;11.510;2024-01-06T09:58:56;4.70;99.90
6118;DHT22;3089;48.202;11.510;2024-01-06T10:01:24;4.70;99.90
6118;DHT22;3089;48.202;11.510;2024-01-06T10:03:52;4.70;99.90
6118;DHT22;3089;48.202;11.510;2024-01-06T10:06:21;4.70;99.90
6118;DHT22;3089;48.202;11.510;2024-01-06T10:08:51;4.70;99.90
6118;DHT22;3089;48.202;11.510;2024-01-06T10:11:22;4.70;99.90
6118;DHT22;3089;48.202;11.510;2024-01-06T10:13:50;4.70;99.90
6118;DHT22;3089;48.202;11.510;2024-01-06T10:16:19;4.70;99.90
6118;DHT22;3089;48.202;11.510;2024-01-06T10:18:48;4.70;99.90
6118;DHT22;3089;48.202;11.510;2024-01-06T10:21:20;4.70;99.90
6118;DHT22;3089;48.202;11.510;2024-01-06T10:23:50;4.70;99.90
6118;DHT22;3089;48.202;11.510;2024-01-06T10:26:18;4.70;99.90
6118;DHT22;3089;48.202;11.510;2024-01-06T10:28:48;4.80;99.90
6118;DHT22;3089;48.202;11.510;2024-01-06T10:31:17;4.80;99.90
6118;DHT22;3089;48.202;11.510;2024-01-06T10:33:46;4.80;99.90
6118;DHT22;3089;48.202;11.510;2024-01-06T10:36:15;4.80;99.90
6118;DHT22;3089;48.202;11.510;2024-01-06T10:38:44;4.70;99.90
6118;DHT22;3089;48.202;11.510;2024-01-06T10:41:16;4.70;99.90
6118;DHT22;3089;48.202;11.510;2024-01-06T10:43:44;4.80;99.90
6118;DHT22;3089;48.202;11.510;2024-01-06T10:46:14;4.80;99.90
6118;DHT22;3089;48.202;11.510;2024-01-06T10:48:44;4.80;99.90
6118;DHT22;3089;48.202;11.510;2024-01-06T10:51:14;4.80;99.90
6118;DHT22;3089;48.202;11.510;2024-01-06T10:53:43;4.80;99.90
6118;DHT22;3089;48.202;11.510;2024-01-06T10:56:11;4.80;99.90
6118;DHT22;3089;48.202;11.510;2024-01-06T10:58:45;4.80;99.90
6118;DHT22;3089;48.202;11.510;2024-01-06T11:01:16;4.80;99.90
6118;DHT22;3089;48.202;11.510;2024-01-06T11:03:48;4.80;99.90
6118;DHT22;3089;48.202;11.510;2024-01-06T11:06:17;4.80;99.90
6118;DHT22;3089;48.202;11.510;2024-01-06T11:08:49;4.70;99.90
6118;DHT22;3089;48.202;11.510;2024-01-06T11:11:19;4.70;99.90
6118;DHT22;3089;48.202;11.510;2024-01-06T11:13:49;4.70;99.90
6118;DHT22;3089;48.202;11.510;2024-01-06T11:16:35;4.70;99.90
6118;DHT22;3089;48.202;11.510;2024-01-06T11:19:42;4.70;99.90
6118;DHT22;3089;48.202;11.510;2024-01-06T11:22:23;4.70;99.90
6118;DHT22;3089;48.202;11.510;2024-01-06T11:24:53;4.80;99.90
6118;DHT22;3089;48.202;11.510;2024-01-06T11:27:24;4.70;99.90
6118;DHT22;3089;48.202;11.510;2024-01-06T11:29:57;4.60;99.90
6118;DHT22;3089;48.202;11.510;2024-01-06T11:32:28;4.60;99.90
6118;DHT22;3089;48.202;11.510;2024-01-06T11:35:05;4.60;99.90
6118;DHT22;3089;48.202;11.510;2024-01-06T11:37:36;4.70;99.90
6118;DHT22;3089;48.202;11.510;2024-01-06T11:40:09;4.70;99.90
6118;DHT22;3089;48.202;11.510;2024-01-06T11:42:41;4.70;99.90
6118;DHT22;3089;48.202;11.510;2024-01-06T11:45:10;4.70;99.90
6118;DHT22;3089;48.202;11.510;2024-01-06T11:47:39;4.70;99.90
6118;DHT22;3089;48.202;11.510;2024-01-06T11:50:08;4.70;99.90
6118;DHT22;3089;48.202;11.510;2024-01-06T11:52:37;4.80;99.90
6118;DHT22;3089;48.202;11.510;2024-01-06T11:55:05;4.80;99.90
6118;DHT22;3089;48.202;11.510;2024-01-06T11:57:35;4.70;99.90
6118;DHT22;3089;48.202;11.510;2024-01-06T12:00:03;4.70;99.90
6118;DHT22;3089;48.202;11.510;2024-01-06T12:02:33;4.70;99.90
6118;DHT22;3089;48.202;11.510;2024-01-06T12:05:01;4.70;99.90
6118;DHT22;3089;48.202;11.510;2024-01-06T12:07:29;4.70;99.90
6118;DHT22;3089;48.202;11.510;2024-01-06T12:10:02;4.60;99.90
6118;DHT22;3089;48.202;11.510;2024-01-06T12:12:31;4.70;99.90
6118;DHT22;3089;48.202;11.510;2024-01-06T12:14:59;4.50;99.90
6118;DHT22;3089;48.202;11.510;2024-01-06T12:17:29;4.60;99.90
6118;DHT22;3089;48.202;11.510;2024-01-06T12:19:58;4.60;99.90
6118;DHT22;3089;48.202;11.510;2024-01-06T12:22:27;4.60;99.90
6118;DHT22;3089;48.202;11.510;2024-01-06T12:24:55;4.50;99.90
6118;DHT22;3089;48.202;11.510;2024-01-06T12:27:24;4.60;99.90
6118;DHT22;3089;48.202;11.510;2024-01-06T12:29:53;4.60;99.90
6118;DHT22;3089;48.202;11.510;2024-01-06T12:32:21;4.60;99.90
6118;DHT22;3089;48.202;11.510;2024-01-06T12:34:49;4.70;99.90
6118;DHT22;3089;48.202;11.510;2024-01-06T12:37:18;4.60;99.90
6118;DHT22;3089;48.202;11.510;2024-01-06T12:39:47;4.50;99.90
6118;DHT22;3089;48.202;11.510;2024-01-06T12:42:15;4.60;99.90
6118;DHT22;3089;48.202;11.510;2024-01-06T12:44:44;4.40;99.90
6118;DHT22;3089;48.202;11.510;2024-01-06T12:47:12;4.40;99.90
6118;DHT22;3089;48.202;11.510;2024-01-06T12:49:40;4.50;99.90
6118;DHT22;3089;48.202;11.510;2024-01-06T12:52:09;4.50;99.90
6118;DHT22;3089;48.202;11.510;2024-01-06T12:54:39;4.60;99.90
6118;DHT22;3089;48.202;11.510;2024-01-06T12:57:10;4.50;99.90
6118;DHT22;3089;48.202;11.510;2024-01-06T12:59:38;4.50;99.90
6118;DHT22;3089;48.202;11.510;2024-01-06T13:02:06;4.50;99.90
6118;DHT22;3089;48.202;11.510;2024-01-06T13:04:35;4.50;99.90
6118;DHT22;3089;48.202;11.510;2024-01-06T13:07:03;4.50;99.90
6118;DHT22;3089;48.202;11.510;2024-01-06T13:09:31;4.40;99.90
6118;DHT22;3089;48.202;11.510;2024-01-06T13:12:00;4.50;99.90
6118;DHT22;3089;48.202;11.510;2024-01-06T13:14:29;4.30;99.90
6118;DHT22;3089;48.202;11.510;2024-01-06T13:16:58;4.50;99.90
6118;DHT22;3089;48.202;11.510;2024-01-06T13:19:26;4.60;99.90
6118;DHT22;3089;48.202;11.510;2024-01-06T13:21:55;4.60;99.90
6118;DHT22;3089;48.202;11.510;2024-01-06T13:24:23;4.60;99.90
6118;DHT22;3089;48.202;11.510;2024-01-06T13:26:52;4.30;99.90
6118;DHT22;3089;48.202;11.510;2024-01-06T13:29:22;4.50;99.90
6118;DHT22;3089;48.202;11.510;2024-01-06T13:31:51;4.50;99.90
6118;DHT22;3089;48.202;11.510;2024-01-06T13:34:21;4.60;99.90
6118;DHT22;3089;48.202;11.510;2024-01-06T13:36:50;4.50;99.90
6118;DHT22;3089;48.202;11.510;2024-01-06T13:39:23;4.60;99.90
6118;DHT22;3089;48.202;11.510;2024-01-06T13:41:52;4.60;99.90
6118;DHT22;3089;48.202;11.510;2024-01-06T13:44:21;4.50;99.90
6118;DHT22;3089;48.202;11.510;2024-01-06T13:46:50;4.60;99.90
6118;DHT22;3089;48.202;11.510;2024-01-06T13:49:20;4.50;99.90
6118;DHT22;3089;48.202;11.510;2024-01-06T13:51:50;4.50;99.90
6118;DHT22;3089;48.202;11.510;2024-01-06T13:54:18;4.50;99.90
6118;DHT22;3089;48.202;11.510;2024-01-06T13:56:46;4.60;99.90
6118;DHT22;3089;48.202;11.510;2024-01-06T13:59:15;4.60;99.90
6118;DHT22;3089;48.202;11.510;2024-01-06T14:01:44;4.60;99.90
6118;DHT22;3089;48.202;11.510;2024-01-06T14:04:13;4.50;99.90
6118;DHT22;3089;48.202;11.510;2024-01-06T14:06:41;4.50;99.90
6118;DHT22;3089;48.202;11.510;2024-01-06T14:09:09;4.50;99.90
6118;DHT22;3089;48.202;11.510;2024-01-06T14:11:38;4.60;99.90
6118;DHT22;3089;48.202;11.510;2024-01-06T14:14:06;4.60;99.90
6118;DHT22;3089;48.202;11.510;2024-01-06T14:16:34;4.60;99.90
6118;DHT22;3089;48.202;11.510;2024-01-06T14:19:04;4.50;99.90
6118;DHT22;3089;48.202;11.510;2024-01-06T14:21:32;4.50;99.90
6118;DHT22;3089;48.202;11.510;2024-01-06T14:24:00;4.50;99.90
6118;DHT22;3089;48.202;11.510;2024-01-06T14:26:28;4.60;99.90
6118;DHT22;3089;48.202;11.510;2024-01-06T14:28:57;4.60;99.90
6118;DHT22;3089;48.202;11.510;2024-01-06T14:31:25;4.50;99.90
6118;DHT22;3089;48.202;11.510;2024-01-06T14:33:54;4.50;99.90
6118;DHT22;3089;48.202;11.510;2024-01-06T14:36:27;4.30;99.90
6118;DHT22;3089;48.202;11.510;2024-01-06T14:38:55;4.30;99.90
6118;DHT22;3089;48.202;11.510;2024-01-06T14:41:23;4.30;99.90
6118;DHT22;3089;48.202;11.510;2024-01-06T14:43:51;4.20;99.90
6118;DHT22;3089;48.202;11.510;2024-01-06T14:46:19;4.30;99.90
6118;DHT22;3089;48.202;11.510;2024-01-06T14:48:47;4.20;99.90
6118;DHT22;3089;48.202;11.510;2024-01-06T14:51:15;4.30;99.90
6118;DHT22;3089;48.202;11.510;2024-01-06T14:53:45;4.40;99.90
6118;DHT22;3089;48.202;11.510;2024-01-06T14:56:13;4.50;99.90
6118;DHT22;3089;48.202;11.510;2024-01-06T14:58:41;4.40;99.90
6118;DHT22;3089;48.202;11.510;2024-01-06T15:01:09;4.30;99.90
6118;DHT22;3089;48.202;11.510;2024-01-06T15:03:37;4.20;99.90
6118;DHT22;3089;48.202;11.510;2024-01-06T15:06:05;4.10;99.90
6118;DHT22;3089;48.202;11.510;2024-01-06T15:08:33;4.30;99.90
6118;DHT22;3089;48.202;11.510;2024-01-06T15:11:03;4.30;99.90
6118;DHT22;3089;48.202;11.510;2024-01-06T15:13:31;4.30;99.90
6118;DHT22;3089;48.202;11.510;2024-01-06T15:15:59;4.30;99.90
6118;DHT22;3089;48.202;11.510;2024-01-06T15:18:27;4.40;99.90
6118;DHT22;3089;48.202;11.510;2024-01-06T15:20:55;4.30;99.90
6118;DHT22;3089;48.202;11.510;2024-01-06T15:23:23;4.30;99.90
6118;DHT22;3089;48.202;11.510;2024-01-06T15:25:51;4.30;99.90
6118;DHT22;3089;48.202;11.510;2024-01-06T15:28:21;4.20;99.90
6118;DHT22;3089;48.202;11.510;2024-01-06T15:30:49;4.20;99.90
6118;DHT22;3089;48.202;11.510;2024-01-06T15:33:17;4.30;99.90
6118;DHT22;3089;48.202;11.510;2024-01-06T15:35:45;4.20;99.90
6118;DHT22;3089;48.202;11.510;2024-01-06T15:38:13;4.20;99.90
6118;DHT22;3089;48.202;11.510;2024-01-06T15:40:41;4.30;99.90
6118;DHT22;3089;48.202;11.510;2024-01-06T15:43:09;4.30;99.90
6118;DHT22;3089;48.202;11.510;2024-01-06T15:45:39;4.30;99.90
6118;DHT22;3089;48.202;11.510;2024-01-06T15:48:07;4.30;99.90
6118;DHT22;3089;48.202;11.510;2024-01-06T15:50:36;4.30;99.90
6118;DHT22;3089;48.202;11.510;2024-01-06T15:53:04;4.30;99.90
6118;DHT22;3089;48.202;11.510;2024-01-06T15:55:32;4.30;99.90
6118;DHT22;3089;48.202;11.510;2024-01-06T15:58:00;4.30;99.90
6118;DHT22;3089;48.202;11.510;2024-01-06T16:00:28;4.30;99.90
6118;DHT22;3089;48.202;11.510;2024-01-06T16:02:59;4.30;99.90
6118;DHT22;3089;48.202;11.510;2024-01-06T16:05:27;4.20;99.90
6118;DHT22;3089;48.202;11.510;2024-01-06T16:07:55;4.20;99.90
6118;DHT22;3089;48.202;11.510;2024-01-06T16:10:23;4.20;99.90
6118;DHT22;3089;48.202;11.510;2024-01-06T16:12:52;4.20;99.90